Time;durP1;ratioP1;P1;durP2;ratioP2;P2;SDS_P1;SDS_P2;PMS_P1;PMS_P2;Temp;Humidity;BMP_temperature;BMP_pressure;BME280_temperature;BME280_humidity;BME280_pressure;Samples;Min_cycle;Max_cycle;Signal;HPM_P1;HPM_P2
2022/05/06 00:00:12;;;;;;;2.83;0.68;;;15.20;59.50;;;;;;5043972;28;20025;-65
2022/05/06 00:02:40;;;;;;;2.80;0.80;;;15.20;57.20;;;;;;5040864;28;20396;-64
2022/05/06 00:05:09;;;;;;;3.83;0.82;;;15.30;58.20;;;;;;5037539;28;20036;-67
2022/05/06 00:07:36;;;;;;;3.17;0.93;;;15.40;56.60;;;;;;5040718;28;20245;-65
2022/05/06 00:10:05;;;;;;;1.42;0.65;;;15.50;55.50;;;;;;5042370;28;20025;-67
2022/05/06 00:12:33;;;;;;;5.68;1.23;;;15.60;56.30;;;;;;5038616;28;20029;-67
2022/05/06 00:15:00;;;;;;;2.03;1.00;;;15.80;56.10;;;;;;5037438;28;20025;-64
2022/05/06 00:17:28;;;;;;;3.40;1.08;;;15.90;54.90;;;;;;5045139;28;20143;-65
2022/05/06 00:19:55;;;;;;;6.28;1.00;;;16.00;54.50;;;;;;5044583;28;20603;-64
2022/05/06 00:22:22;;;;;;;11.02;1.10;;;16.00;53.00;;;;;;5039852;28;20022;-63
2022/05/06 00:24:51;;;;;;;5.32;1.27;;;16.00;53.30;;;;;;5041073;28;20037;-64
2022/05/06 00:27:18;;;;;;;8.40;1.25;;;16.00;53.00;;;;;;5043785;28;20028;-67
2022/05/06 00:29:45;;;;;;;5.05;0.88;;;16.10;52.50;;;;;;5039992;28;20056;-65
2022/05/06 00:32:13;;;;;;;4.70;1.05;;;16.20;53.70;;;;;;5043410;28;20046;-62
2022/05/06 00:34:40;;;;;;;3.63;1.10;;;16.30;51.50;;;;;;5040925;28;20032;-62
2022/05/06 00:37:07;;;;;;;3.47;0.80;;;16.40;51.50;;;;;;5039059;28;20523;-63
2022/05/06 00:39:38;;;;;;;4.15;1.08;;;16.40;49.90;;;;;;5037685;28;20576;-61
2022/05/06 00:42:06;;;;;;;5.80;1.05;;;16.50;50.30;;;;;;5045115;28;20991;-65
2022/05/06 00:44:33;;;;;;;3.08;0.80;;;16.60;50.00;;;;;;5040431;28;20025;-62
2022/05/06 00:47:02;;;;;;;5.32;1.20;;;16.60;48.80;;;;;;5038390;28;20016;-61
2022/05/06 00:49:29;;;;;;;3.53;0.77;;;16.60;49.50;;;;;;5040024;28;20079;-61
2022/05/06 00:51:57;;;;;;;4.97;0.93;;;16.60;47.80;;;;;;5038350;28;20070;-61
2022/05/06 00:54:24;;;;;;;2.13;0.85;;;16.70;47.40;;;;;;5037792;28;20049;-62
2022/05/06 00:56:53;;;;;;;3.92;1.00;;;16.70;46.60;;;;;;5037935;28;20029;-61
2022/05/06 00:59:20;;;;;;;3.63;0.77;;;16.70;47.20;;;;;;5040668;28;20040;-62
2022/05/06 01:01:47;;;;;;;10.52;1.10;;;16.80;49.50;;;;;;5040848;28;20037;-62
2022/05/06 01:04:18;;;;;;;3.40;0.68;;;16.90;51.30;;;;;;5046713;28;20032;-62
2022/05/06 01:06:46;;;;;;;5.22;1.00;;;16.90;48.10;;;;;;5039926;28;20728;-62
2022/05/06 01:09:18;;;;;;;2.42;0.63;;;17.00;47.10;;;;;;5040202;28;20032;-61
2022/05/06 01:11:46;;;;;;;1.40;0.70;;;16.90;48.80;;;;;;5042668;28;20399;-61
2022/05/06 01:14:32;;;;;;;2.60;0.63;;;17.00;47.70;;;;;;5037795;28;20024;-61
2022/05/06 01:16:59;;;;;;;4.68;0.60;;;17.10;46.50;;;;;;5043659;28;20457;-60
2022/05/06 01:19:26;;;;;;;2.88;1.00;;;17.20;46.30;;;;;;5041356;28;20032;-60
2022/05/06 01:21:56;;;;;;;3.78;1.70;;;17.30;48.30;;;;;;5039686;28;20110;-61
2022/05/06 01:24:25;;;;;;;2.50;0.90;;;17.40;45.70;;;;;;5037726;28;20025;-60
2022/05/06 01:26:55;;;;;;;5.60;0.90;;;17.40;47.00;;;;;;5040440;28;20425;-60
2022/05/06 01:29:23;;;;;;;2.30;1.05;;;17.40;47.50;;;;;;5040565;28;20017;-60
2022/05/06 01:31:52;;;;;;;4.97;0.68;;;17.50;47.10;;;;;;5036746;28;20029;-63
2022/05/06 01:34:19;;;;;;;4.13;0.85;;;17.60;47.80;;;;;;5040807;28;20095;-61
2022/05/06 01:36:50;;;;;;;3.92;0.80;;;17.60;47.30;;;;;;5036549;28;20041;-61
2022/05/06 01:39:22;;;;;;;5.32;1.05;;;17.60;45.40;;;;;;5038916;28;20051;-62
2022/05/06 01:41:55;;;;;;;2.60;1.08;;;17.60;48.10;;;;;;5021673;28;20029;-66
2022/05/06 01:44:25;;;;;;;2.13;0.90;;;17.60;46.70;;;;;;5040376;28;20504;-62
2022/05/06 01:46:58;;;;;;;2.83;0.88;;;17.80;47.60;;;;;;5042635;28;20611;-62
2022/05/06 01:49:28;;;;;;;4.07;1.25;;;18.00;46.40;;;;;;5046109;28;20021;-62
2022/05/06 01:51:58;;;;;;;5.93;1.27;;;18.10;46.60;;;;;;5046286;28;20028;-61
2022/05/06 01:54:26;;;;;;;5.57;1.35;;;18.10;43.70;;;;;;5035017;28;20029;-61
2022/05/06 01:56:53;;;;;;;2.85;0.88;;;18.20;44.10;;;;;;5039432;28;20021;-61
2022/05/06 01:59:20;;;;;;;2.90;1.30;;;18.10;43.80;;;;;;5039644;28;20034;-60
2022/05/06 02:01:48;;;;;;;3.53;0.85;;;18.10;42.80;;;;;;5043257;28;20028;-61
2022/05/06 02:07:00;;;;;;;5.63;0.93;;;18.00;45.20;;;;;;5039737;28;20437;-60
2022/05/06 02:09:27;;;;;;;4.00;0.70;;;18.10;44.30;;;;;;5049984;28;20095;-59
2022/05/06 02:11:54;;;;;;;2.58;0.68;;;18.00;44.20;;;;;;5048333;28;20028;-59
2022/05/06 02:14:22;;;;;;;9.50;2.13;;;18.00;45.70;;;;;;5049526;28;20132;-59
2022/05/06 02:16:49;;;;;;;3.20;0.60;;;18.20;46.90;;;;;;5050470;28;20432;-59
2022/05/06 02:19:16;;;;;;;3.05;1.10;;;18.30;43.20;;;;;;5050917;28;20029;-61
2022/05/06 02:21:43;;;;;;;3.17;0.52;;;18.30;44.00;;;;;;5045369;28;20021;-60
2022/05/06 02:24:12;;;;;;;2.38;0.70;;;18.50;46.90;;;;;;5040365;28;20035;-60
2022/05/06 02:26:39;;;;;;;2.13;0.70;;;18.60;46.20;;;;;;5036242;28;20139;-61
2022/05/06 02:29:06;;;;;;;1.88;0.70;;;18.70;44.60;;;;;;5040904;28;20032;-61
2022/05/06 02:34:20;;;;;;;1.88;0.70;;;18.70;43.50;;;;;;5049739;28;20079;-61
2022/05/06 02:36:47;;;;;;;4.75;1.15;;;18.60;43.00;;;;;;5044191;28;20029;-60
2022/05/06 02:39:15;;;;;;;5.68;1.90;;;18.50;43.90;;;;;;5042099;28;20604;-59
2022/05/06 02:41:42;;;;;;;1.80;0.80;;;18.50;43.70;;;;;;5042680;28;20017;-60
2022/05/06 02:44:09;;;;;;;3.78;0.70;;;18.50;44.30;;;;;;5049299;28;20025;-58
2022/05/06 02:46:37;;;;;;;2.45;0.68;;;18.60;46.20;;;;;;5050913;28;20032;-60
2022/05/06 02:49:05;;;;;;;1.50;0.80;;;18.80;44.90;;;;;;5052337;28;20028;-60
2022/05/06 02:51:32;;;;;;;2.35;1.00;;;18.90;45.20;;;;;;5044944;28;20017;-60
2022/05/06 02:53:59;;;;;;;9.05;1.00;;;18.90;42.20;;;;;;5039441;28;20056;-60
2022/05/06 02:56:27;;;;;;;3.88;0.90;;;18.90;42.80;;;;;;5051868;28;20032;-60
2022/05/06 02:58:54;;;;;;;1.33;0.57;;;18.80;43.00;;;;;;5044087;28;20031;-59
2022/05/06 03:01:21;;;;;;;4.72;0.90;;;18.70;44.30;;;;;;5043785;28;20026;-59
2022/05/06 03:03:48;;;;;;;4.10;0.70;;;18.80;42.40;;;;;;5042194;28;20477;-59
2022/05/06 03:06:15;;;;;;;2.85;1.10;;;18.80;43.90;;;;;;5036334;28;20548;-63
2022/05/06 03:08:43;;;;;;;2.15;0.75;;;18.90;43.20;;;;;;5048503;28;20409;-60
2022/05/06 03:11:10;;;;;;;8.70;1.10;;;18.70;42.50;;;;;;5042356;28;20100;-60
2022/05/06 03:13:38;;;;;;;8.13;1.25;;;18.70;43.90;;;;;;5042965;28;20036;-60
2022/05/06 03:16:05;;;;;;;5.80;0.88;;;18.70;45.40;;;;;;5043747;28;20033;-60
2022/05/06 03:18:32;;;;;;;3.75;1.50;;;18.90;46.80;;;;;;5033626;28;20083;-60
2022/05/06 03:20:59;;;;;;;3.85;0.88;;;19.20;44.40;;;;;;5034651;28;20071;-61
2022/05/06 03:23:27;;;;;;;2.88;0.90;;;19.20;43.00;;;;;;5044027;28;20528;-60
2022/05/06 03:25:54;;;;;;;5.78;0.88;;;19.30;44.60;;;;;;5036570;28;20026;-58
2022/05/06 03:28:21;;;;;;;3.17;0.90;;;19.40;42.20;;;;;;5045764;28;20103;-59
2022/05/06 03:30:48;;;;;;;2.53;0.63;;;19.30;42.70;;;;;;5033714;28;20029;-59
2022/05/06 03:33:18;;;;;;;1.55;1.05;;;19.30;41.30;;;;;;5034504;28;20552;-60
2022/05/06 03:35:45;;;;;;;2.63;0.93;;;19.30;42.40;;;;;;5042843;28;20033;-59
2022/05/06 03:38:13;;;;;;;2.90;0.73;;;19.20;41.90;;;;;;5046162;28;20544;-60
2022/05/06 03:40:41;;;;;;;1.30;0.55;;;19.20;43.50;;;;;;5038484;28;20075;-60
2022/05/06 03:43:08;;;;;;;3.30;0.63;;;19.30;44.10;;;;;;5047062;28;20112;-59
2022/05/06 03:45:38;;;;;;;2.78;0.63;;;19.40;43.60;;;;;;5042173;28;21025;-59
2022/05/06 03:48:06;;;;;;;2.03;0.70;;;19.40;43.90;;;;;;5043536;28;20082;-60
2022/05/06 03:53:18;;;;;;;1.33;0.60;;;19.60;42.30;;;;;;5041730;28;20595;-59
2022/05/06 03:55:45;;;;;;;3.97;0.60;;;19.70;44.50;;;;;;5043160;28;20033;-62
2022/05/06 03:58:13;;;;;;;2.35;0.80;;;19.70;42.30;;;;;;5037526;28;20605;-58
2022/05/06 04:00:41;;;;;;;2.65;0.73;;;19.70;42.90;;;;;;5047224;28;20025;-59
2022/05/06 04:03:08;;;;;;;5.15;0.68;;;19.60;42.40;;;;;;5043614;28;20434;-59
2022/05/06 04:05:36;;;;;;;1.40;0.50;;;19.50;42.70;;;;;;5047355;28;20029;-59
2022/05/06 04:08:04;;;;;;;2.53;0.70;;;19.60;43.00;;;;;;5039103;28;20076;-59
2022/05/06 04:10:31;;;;;;;1.75;0.88;;;19.60;43.00;;;;;;5043137;28;20049;-58
2022/05/06 04:12:58;;;;;;;2.83;0.80;;;19.50;42.50;;;;;;5037399;28;20028;-60
2022/05/06 04:15:25;;;;;;;2.10;0.68;;;19.50;42.70;;;;;;5038859;28;20028;-58
2022/05/06 04:17:53;;;;;;;5.43;0.85;;;19.50;42.90;;;;;;5042189;28;20037;-59
2022/05/06 04:25:51;;;;;;;2.05;0.65;;;19.40;40.50;;;;;;5038449;28;20072;-60
2022/05/06 04:28:18;;;;;;;2.67;1.13;;;19.30;42.20;;;;;;5044962;28;20024;-58
2022/05/06 04:30:45;;;;;;;1.98;0.65;;;19.30;42.00;;;;;;5047005;28;20065;-59
2022/05/06 04:33:13;;;;;;;0.88;0.57;;;19.30;41.60;;;;;;5032826;28;20091;-60
2022/05/06 04:35:40;;;;;;;1.13;0.68;;;19.30;39.30;;;;;;5044837;28;20031;-60
2022/05/06 04:38:08;;;;;;;1.70;0.40;;;19.20;39.10;;;;;;5044806;28;20096;-60
2022/05/06 04:40:36;;;;;;;1.58;0.52;;;19.00;39.40;;;;;;5045726;28;20452;-60
2022/05/06 04:43:06;;;;;;;1.55;0.50;;;18.90;38.20;;;;;;5044727;28;20067;-60
2022/05/06 04:45:38;;;;;;;2.03;0.52;;;19.00;38.00;;;;;;5042668;28;20055;-59
2022/05/06 04:48:10;;;;;;;2.33;0.68;;;19.10;38.50;;;;;;5042010;28;20025;-60
2022/05/06 04:50:39;;;;;;;0.80;0.40;;;19.20;40.40;;;;;;5041800;28;20055;-60
2022/05/06 04:53:09;;;;;;;1.73;0.65;;;19.20;37.50;;;;;;5045716;28;20485;-59
2022/05/06 04:55:48;;;;;;;0.55;0.35;;;19.20;36.70;;;;;;5038539;28;20035;-59
2022/05/06 04:58:17;;;;;;;2.28;0.65;;;19.20;37.90;;;;;;5047766;28;20037;-59
2022/05/06 05:00:45;;;;;;;2.10;0.47;;;19.20;38.80;;;;;;5046910;28;20029;-59
2022/05/06 05:03:13;;;;;;;1.85;0.65;;;19.20;39.30;;;;;;5040030;28;20498;-59
2022/05/06 05:05:40;;;;;;;1.27;0.60;;;19.10;38.60;;;;;;5041328;28;20479;-58
2022/05/06 05:08:09;;;;;;;2.28;0.40;;;19.10;38.60;;;;;;5036815;28;20124;-59
2022/05/06 05:10:36;;;;;;;1.85;0.52;;;19.00;38.60;;;;;;5044925;28;20021;-59
2022/05/06 05:13:03;;;;;;;3.10;0.70;;;19.00;38.80;;;;;;5049211;28;20025;-59
2022/05/06 05:15:31;;;;;;;1.90;0.63;;;19.00;39.00;;;;;;5041612;28;20057;-59
2022/05/06 05:17:58;;;;;;;1.85;0.82;;;19.00;40.00;;;;;;5041073;28;20032;-60
2022/05/06 05:20:26;;;;;;;3.17;0.80;;;18.90;39.60;;;;;;5042915;28;20112;-58
2022/05/06 05:22:53;;;;;;;0.60;0.40;;;18.80;40.30;;;;;;5035310;28;20382;-60
2022/05/06 05:25:20;;;;;;;1.33;0.50;;;18.80;39.70;;;;;;5042479;28;20040;-59
2022/05/06 05:27:47;;;;;;;5.78;1.33;;;18.70;41.50;;;;;;5041523;28;20029;-62
2022/05/06 05:30:14;;;;;;;2.33;0.55;;;18.70;41.10;;;;;;5040691;28;20550;-59
2022/05/06 05:32:42;;;;;;;3.67;1.25;;;18.60;39.80;;;;;;5044147;28;20029;-60
2022/05/06 05:35:09;;;;;;;2.92;0.45;;;18.50;41.60;;;;;;5033802;28;20486;-59
2022/05/06 05:37:36;;;;;;;25.98;9.57;;;18.50;43.00;;;;;;5040050;28;20045;-58
2022/05/06 05:40:05;;;;;;;7.28;2.42;;;18.40;41.80;;;;;;5048115;28;20027;-60
2022/05/06 05:42:32;;;;;;;51.40;13.40;;;18.80;49.10;;;;;;5042888;28;20485;-60
2022/05/06 05:50:30;;;;;;;56.22;15.85;;;21.90;49.40;;;;;;5051595;28;20036;-60
2022/05/06 05:52:58;;;;;;;35.30;8.88;;;22.20;47.40;;;;;;5040555;28;20040;-60
2022/05/06 05:55:25;;;;;;;71.25;19.23;;;21.70;48.00;;;;;;5052581;28;20100;-59
2022/05/06 05:57:52;;;;;;;67.15;19.98;;;20.00;82.40;;;;;;5045000;28;20018;-59
2022/05/06 06:00:20;;;;;;;52.53;10.25;;;18.90;71.40;;;;;;5049908;28;20037;-59
2022/05/06 06:02:47;;;;;;;15.30;3.45;;;19.50;58.70;;;;;;5040430;28;20025;-59
2022/05/06 06:05:14;;;;;;;6.70;2.30;;;20.30;55.70;;;;;;5052840;28;20021;-57
2022/05/06 06:07:41;;;;;;;4.90;1.00;;;20.90;50.50;;;;;;5045516;28;20033;-59
2022/05/06 06:10:09;;;;;;;4.82;0.73;;;20.70;43.50;;;;;;5048325;28;20017;-59
2022/05/06 06:12:36;;;;;;;4.75;1.48;;;20.00;43.00;;;;;;5054826;28;20097;-59
2022/05/06 06:15:04;;;;;;;1.73;0.80;;;19.30;42.90;;;;;;5047264;28;20381;-59
2022/05/06 06:17:31;;;;;;;2.17;0.95;;;18.70;47.70;;;;;;5049448;28;20020;-56
2022/05/06 06:19:59;;;;;;;5.82;1.90;;;18.30;46.70;;;;;;5055003;28;20033;-60
2022/05/06 06:22:26;;;;;;;14.23;2.80;;;17.90;48.80;;;;;;5039903;28;20026;-59
2022/05/06 06:24:53;;;;;;;20.95;4.85;;;17.60;48.10;;;;;;5051642;28;20028;-58
2022/05/06 06:27:20;;;;;;;5.68;1.10;;;17.30;50.50;;;;;;5044199;28;20533;-59
2022/05/06 06:29:49;;;;;;;1.98;0.80;;;17.10;48.90;;;;;;5053345;28;20033;-61
2022/05/06 06:32:16;;;;;;;5.30;0.70;;;16.90;48.10;;;;;;5043615;28;20420;-61
2022/05/06 06:34:44;;;;;;;4.68;0.93;;;16.80;49.80;;;;;;5049873;28;20021;-60
2022/05/06 06:37:12;;;;;;;1.25;0.65;;;16.70;50.20;;;;;;5044177;28;20108;-59
2022/05/06 06:39:39;;;;;;;1.40;0.52;;;16.60;49.00;;;;;;5047935;28;20526;-60
2022/05/06 06:42:07;;;;;;;3.20;0.98;;;16.50;48.60;;;;;;5050142;28;20021;-58
2022/05/06 06:44:34;;;;;;;1.63;0.60;;;16.40;48.60;;;;;;5046125;28;20508;-55
2022/05/06 06:47:01;;;;;;;5.47;0.77;;;16.40;50.80;;;;;;5051148;28;20051;-57
2022/05/06 06:49:29;;;;;;;5.90;1.00;;;16.30;51.10;;;;;;5054097;28;20021;-55
2022/05/06 06:51:57;;;;;;;3.05;0.80;;;16.20;49.90;;;;;;5049798;28;20032;-54
2022/05/06 06:54:24;;;;;;;4.07;1.02;;;16.10;49.40;;;;;;5046465;28;20033;-58
2022/05/06 06:56:51;;;;;;;3.35;0.80;;;16.00;50.10;;;;;;5047832;28;20434;-58
2022/05/06 06:59:18;;;;;;;12.70;1.30;;;15.80;50.00;;;;;;5044869;28;20036;-58
2022/05/06 07:01:45;;;;;;;2.42;0.80;;;15.60;51.10;;;;;;5043140;28;20021;-58
2022/05/06 07:04:13;;;;;;;1.85;0.80;;;15.50;50.40;;;;;;5049236;28;20067;-57
2022/05/06 07:12:11;;;;;;;4.00;1.00;;;15.10;51.80;;;;;;5037226;28;20064;-57
2022/05/06 07:14:39;;;;;;;2.75;0.70;;;15.00;52.40;;;;;;5049202;28;20139;-58
2022/05/06 07:17:06;;;;;;;2.83;0.80;;;14.90;52.10;;;;;;5048508;28;20025;-60
2022/05/06 07:19:33;;;;;;;2.15;1.00;;;14.80;53.70;;;;;;5041599;28;20084;-63
2022/05/06 07:22:01;;;;;;;3.42;0.73;;;14.60;52.50;;;;;;5047082;28;20029;-60
2022/05/06 07:24:28;;;;;;;2.63;1.10;;;14.50;53.00;;;;;;5050161;28;20359;-61
2022/05/06 07:26:56;;;;;;;3.17;0.98;;;14.40;53.10;;;;;;5040912;28;20021;-60
2022/05/06 07:29:24;;;;;;;5.15;1.70;;;14.30;53.10;;;;;;5048609;28;20049;-60
2022/05/06 07:31:51;;;;;;;4.80;2.45;;;14.10;53.70;;;;;;5041985;28;20167;-61
2022/05/06 07:34:19;;;;;;;5.95;1.30;;;13.90;54.30;;;;;;5044652;28;20572;-62
2022/05/06 07:36:46;;;;;;;5.15;1.10;;;13.80;55.00;;;;;;5046325;28;20167;-59
2022/05/06 07:39:15;;;;;;;6.28;1.05;;;13.60;56.20;;;;;;5034602;28;20051;-58
2022/05/06 07:41:46;;;;;;;8.07;1.17;;;13.50;56.50;;;;;;5044762;28;20032;-57
2022/05/06 07:44:13;;;;;;;4.35;1.10;;;13.40;55.90;;;;;;5049560;28;20033;-58
2022/05/06 07:46:40;;;;;;;2.83;1.08;;;13.30;56.20;;;;;;5047860;28;20033;-59
2022/05/06 07:49:08;;;;;;;6.22;1.10;;;13.20;56.40;;;;;;5049562;28;20059;-65
2022/05/06 07:51:35;;;;;;;4.40;1.45;;;13.30;56.30;;;;;;5048826;28;20033;-66
2022/05/06 07:54:03;;;;;;;14.45;6.65;;;13.30;56.20;;;;;;5048783;28;20060;-66
2022/05/06 07:56:30;;;;;;;149.25;80.50;;;13.30;56.70;;;;;;5049375;28;20024;-66
2022/05/06 07:58:58;;;;;;;213.02;114.07;;;13.20;56.80;;;;;;5034030;28;20044;-66
2022/05/06 08:06:56;;;;;;;12.48;5.68;;;13.00;57.70;;;;;;5046961;28;20039;-66
2022/05/06 08:09:23;;;;;;;8.38;3.53;;;13.00;57.80;;;;;;5044785;28;20030;-66
2022/05/06 08:11:51;;;;;;;18.65;8.20;;;13.10;57.30;;;;;;5043317;28;20100;-67
2022/05/06 08:14:19;;;;;;;38.72;19.50;;;13.20;58.10;;;;;;5044757;28;20025;-67
2022/05/06 08:16:48;;;;;;;24.60;10.52;;;13.20;58.50;;;;;;5042545;28;20031;-64
2022/05/06 08:19:16;;;;;;;19.05;9.30;;;13.10;57.00;;;;;;5045304;28;20040;-66
2022/05/06 08:21:43;;;;;;;25.08;12.63;;;13.10;58.00;;;;;;5038908;28;20026;-66
2022/05/06 08:24:10;;;;;;;38.97;19.67;;;13.00;57.90;;;;;;5042005;28;20075;-66
2022/05/06 08:26:38;;;;;;;32.63;17.13;;;12.90;57.40;;;;;;5045420;28;20276;-65
2022/05/06 08:29:05;;;;;;;52.08;25.85;;;12.80;58.10;;;;;;5035581;28;20094;-65
2022/05/06 08:31:37;;;;;;;14.45;6.45;;;12.70;59.30;;;;;;5039011;28;20029;-65
2022/05/06 08:34:08;;;;;;;7.70;2.03;;;12.70;59.00;;;;;;5042749;28;20021;-65
2022/05/06 08:36:41;;;;;;;14.75;5.80;;;12.90;59.20;;;;;;5045429;28;20036;-65
2022/05/06 08:39:11;;;;;;;44.05;18.30;;;13.00;58.80;;;;;;5034529;28;20033;-65
2022/05/06 08:41:40;;;;;;;22.45;11.15;;;12.90;59.70;;;;;;5041083;28;20025;-65
2022/05/06 08:52:35;;;;;;;11.23;3.05;;;12.40;61.60;;;;;;5042685;28;20143;-65
2022/05/06 08:55:03;;;;;;;25.90;11.52;;;12.30;63.50;;;;;;5035863;28;20029;-64
2022/05/06 08:57:31;;;;;;;47.28;20.13;;;12.30;62.80;;;;;;5039730;28;20021;-64
2022/05/06 08:59:58;;;;;;;103.15;48.38;;;12.20;62.90;;;;;;5042878;28;20501;-64
2022/05/06 09:02:26;;;;;;;63.08;27.75;;;12.00;63.20;;;;;;5045563;28;20055;-64
2022/05/06 09:04:54;;;;;;;31.10;12.90;;;11.80;63.10;;;;;;5041381;28;20686;-64
2022/05/06 09:07:24;;;;;;;24.98;9.20;;;11.70;63.30;;;;;;5034447;28;20048;-63
2022/05/06 09:10:13;;;;;;;34.50;16.05;;;11.50;64.30;;;;;;5035554;28;20053;-64
2022/05/06 09:12:44;;;;;;;25.23;12.32;;;11.30;65.80;;;;;;5039677;28;20029;-63
2022/05/06 09:18:02;;;;;;;17.33;9.00;;;11.10;67.00;;;;;;5046943;28;20504;-63
2022/05/06 09:20:29;;;;;;;28.63;14.75;;;11.00;67.50;;;;;;5040731;28;20367;-65
2022/05/06 09:22:57;;;;;;;32.63;14.80;;;10.90;67.20;;;;;;5042463;28;20028;-65
2022/05/06 09:25:53;;;;;;;36.90;17.67;;;10.80;67.90;;;;;;5047888;28;20021;-65
2022/05/06 09:28:27;;;;;;;29.45;13.88;;;10.70;67.90;;;;;;5052999;28;20551;-65
2022/05/06 09:31:04;;;;;;;12.38;6.05;;;10.60;68.60;;;;;;5049456;28;20109;-65
2022/05/06 09:33:35;;;;;;;4.18;1.70;;;10.60;68.80;;;;;;5041243;28;20100;-65
2022/05/06 09:36:22;;;;;;;4.63;1.20;;;10.60;68.90;;;;;;5035823;28;20025;-66
2022/05/06 09:39:05;;;;;;;6.35;1.30;;;10.70;68.60;;;;;;5036370;28;20453;-65
2022/05/06 09:41:33;;;;;;;16.70;2.38;;;10.80;68.60;;;;;;5037237;28;20032;-65
2022/05/06 09:44:05;;;;;;;17.83;4.38;;;10.90;67.90;;;;;;5039221;28;20079;-65
2022/05/06 09:46:33;;;;;;;6.45;1.90;;;10.90;67.40;;;;;;5046676;28;20033;-65
2022/05/06 09:49:02;;;;;;;13.60;2.20;;;10.80;68.50;;;;;;5030477;28;20024;-65
2022/05/06 09:51:34;;;;;;;13.68;2.03;;;10.80;69.20;;;;;;5032125;28;20072;-66
2022/05/06 09:54:03;;;;;;;23.15;2.38;;;10.80;68.50;;;;;;5046320;28;20021;-66
2022/05/06 09:56:31;;;;;;;6.35;1.17;;;10.90;68.00;;;;;;5043056;28;20359;-65
2022/05/06 09:58:58;;;;;;;5.95;2.00;;;11.00;68.00;;;;;;5034902;28;20032;-65
2022/05/06 10:01:26;;;;;;;15.65;1.48;;;10.90;68.40;;;;;;5032150;28;20029;-65
2022/05/06 10:03:57;;;;;;;17.38;1.67;;;11.10;67.80;;;;;;5035485;28;20036;-60
2022/05/06 10:06:25;;;;;;;5.63;2.47;;;11.10;67.50;;;;;;5042041;28;20018;-63
2022/05/06 10:09:00;;;;;;;2.88;0.93;;;11.10;67.70;;;;;;5046855;28;20025;-64
2022/05/06 10:11:28;;;;;;;7.88;2.58;;;11.00;67.70;;;;;;5038031;28;20849;-64
2022/05/06 10:14:01;;;;;;;3.72;1.20;;;10.90;68.80;;;;;;5035128;28;20112;-65
2022/05/06 10:16:38;;;;;;;4.38;0.90;;;10.80;69.50;;;;;;5029016;28;20025;-65
2022/05/06 10:19:24;;;;;;;1.73;0.80;;;10.80;69.10;;;;;;5027351;28;20406;-65
2022/05/06 10:21:51;;;;;;;2.13;0.77;;;10.80;69.90;;;;;;5028983;28;20417;-65
2022/05/06 10:24:20;;;;;;;3.45;0.80;;;10.80;70.10;;;;;;5027956;28;20029;-65
2022/05/06 10:26:48;;;;;;;4.18;0.98;;;10.90;70.00;;;;;;5030321;28;20021;-64
2022/05/06 10:32:27;;;;;;;6.00;0.98;;;10.70;70.10;;;;;;5033209;28;20059;-64
2022/05/06 10:35:05;;;;;;;8.95;1.20;;;10.70;71.00;;;;;;5032442;28;20075;-64
2022/05/06 10:37:47;;;;;;;3.53;1.20;;;10.60;71.60;;;;;;5032235;28;20025;-64
2022/05/06 10:40:28;;;;;;;2.72;0.90;;;10.40;71.70;;;;;;5033063;28;20548;-64
2022/05/06 10:42:56;;;;;;;10.93;1.88;;;10.30;72.00;;;;;;5031123;28;20128;-64
2022/05/06 10:45:25;;;;;;;8.88;3.72;;;10.10;72.50;;;;;;5032307;28;20368;-65
2022/05/06 10:47:52;;;;;;;13.45;4.80;;;9.90;73.30;;;;;;5032412;28;20339;-65
2022/05/06 10:50:23;;;;;;;14.98;3.72;;;9.80;73.50;;;;;;5032367;28;20436;-65
2022/05/06 10:52:52;;;;;;;6.80;3.08;;;9.60;74.40;;;;;;5032494;28;20502;-65
2022/05/06 10:55:20;;;;;;;7.75;2.30;;;9.50;74.90;;;;;;5030796;28;20037;-65
2022/05/06 10:57:55;;;;;;;9.98;2.33;;;9.40;75.30;;;;;;5030862;28;20529;-66
2022/05/06 11:00:25;;;;;;;8.10;2.20;;;9.20;77.20;;;;;;5032350;28;20506;-65
2022/05/06 11:02:53;;;;;;;7.97;2.35;;;9.00;76.10;;;;;;5032287;28;20021;-65
2022/05/06 11:05:21;;;;;;;7.82;1.95;;;8.90;76.50;;;;;;5031956;28;20113;-65
2022/05/06 11:07:53;;;;;;;5.63;2.00;;;8.70;76.50;;;;;;5030682;28;20037;-65
2022/05/06 11:10:24;;;;;;;11.98;2.00;;;8.50;77.10;;;;;;5032037;28;20030;-65
2022/05/06 11:12:57;;;;;;;9.88;2.42;;;8.40;79.20;;;;;;5032057;28;20025;-65
2022/05/06 11:15:32;;;;;;;7.32;1.90;;;8.40;81.70;;;;;;5031994;28;20021;-65
2022/05/06 11:18:04;;;;;;;5.15;1.92;;;8.50;82.60;;;;;;5031809;28;20406;-63
2022/05/06 11:20:34;;;;;;;14.93;2.03;;;8.60;81.40;;;;;;5031742;28;20021;-64
2022/05/06 11:23:09;;;;;;;11.73;1.88;;;8.70;82.50;;;;;;5031694;28;20501;-65
2022/05/06 11:25:37;;;;;;;;;;;8.90;80.90;;;;;;5030889;28;20028;-64
2022/05/06 11:28:16;;;;;;;2.05;0.90;;;9.00;80.50;;;;;;5046856;28;20452;-63
2022/05/06 11:30:45;;;;;;;5.03;1.17;;;9.10;79.40;;;;;;5032163;28;20233;-64
2022/05/06 11:33:27;;;;;;;5.28;2.28;;;9.30;78.00;;;;;;5031472;28;20049;-65
2022/05/06 11:36:02;;;;;;;2.70;0.82;;;9.30;77.00;;;;;;5031529;28;20021;-64
2022/05/06 11:38:37;;;;;;;1.98;0.70;;;9.30;77.40;;;;;;5031232;28;20046;-65
2022/05/06 11:41:08;;;;;;;7.43;0.80;;;9.20;77.30;;;;;;5031533;28;20521;-64
2022/05/06 11:43:36;;;;;;;3.15;0.90;;;9.20;77.20;;;;;;5030056;28;20060;-66
2022/05/06 11:48:49;;;;;;;5.93;1.45;;;9.10;78.00;;;;;;5031469;28;20168;-65
2022/05/06 11:51:44;;;;;;;5.10;1.15;;;8.90;77.10;;;;;;5031467;28;20029;-64
2022/05/06 11:54:12;;;;;;;1.75;0.63;;;8.80;80.00;;;;;;5031187;28;20025;-65
2022/05/06 11:56:41;;;;;;;3.70;1.15;;;8.80;78.70;;;;;;5031113;28;20037;-64
2022/05/06 11:59:09;;;;;;;6.07;1.00;;;8.70;79.10;;;;;;5031114;28;20086;-65
2022/05/06 12:01:38;;;;;;;7.00;1.45;;;8.50;79.50;;;;;;5030994;28;20470;-65
2022/05/06 12:04:10;;;;;;;7.30;1.10;;;8.50;79.80;;;;;;5030695;28;20033;-65
2022/05/06 12:06:48;;;;;;;7.38;1.13;;;8.40;79.80;;;;;;5030952;28;20041;-65
2022/05/06 12:09:24;;;;;;;3.90;0.82;;;8.30;79.90;;;;;;5031439;28;20029;-65
2022/05/06 12:12:07;;;;;;;3.63;1.00;;;8.10;79.50;;;;;;5030884;28;20017;-65
2022/05/06 12:14:35;;;;;;;12.63;1.50;;;8.00;80.20;;;;;;5030786;28;20029;-65
2022/05/06 12:17:11;;;;;;;10.35;2.42;;;7.90;80.70;;;;;;5030627;28;20060;-65
2022/05/06 12:19:42;;;;;;;4.60;1.23;;;7.80;82.30;;;;;;5030595;28;20036;-65
2022/05/06 12:22:13;;;;;;;9.88;2.08;;;7.70;82.80;;;;;;5030622;28;20024;-65
2022/05/06 12:24:49;;;;;;;11.57;2.88;;;7.60;83.10;;;;;;5030752;28;20029;-65
2022/05/06 12:27:33;;;;;;;10.23;2.90;;;7.60;83.20;;;;;;5029897;28;20029;-65
2022/05/06 12:30:02;;;;;;;10.82;5.00;;;7.50;83.20;;;;;;5030503;28;20026;-65
2022/05/06 12:32:30;;;;;;;9.20;3.05;;;7.40;84.40;;;;;;5030633;28;20548;-64
2022/05/06 12:35:13;;;;;;;11.50;2.70;;;7.40;84.50;;;;;;5030218;28;20064;-65
2022/05/06 12:38:00;;;;;;;11.25;2.45;;;7.40;85.40;;;;;;5030112;28;20530;-63
2022/05/06 12:40:36;;;;;;;7.85;2.78;;;7.30;84.50;;;;;;5030453;28;20025;-64
2022/05/06 12:43:12;;;;;;;6.07;2.50;;;7.30;84.30;;;;;;5030457;28;20052;-64
2022/05/06 12:45:55;;;;;;;4.25;2.03;;;7.20;85.00;;;;;;5030291;28;20389;-64
2022/05/06 12:51:08;;;;;;;12.32;3.15;;;7.10;85.20;;;;;;5029750;28;20067;-64
2022/05/06 12:53:36;;;;;;;9.43;2.25;;;7.10;85.30;;;;;;5029987;28;20029;-64
2022/05/06 12:56:16;;;;;;;4.95;2.25;;;7.00;85.60;;;;;;5029985;28;20381;-65
2022/05/06 12:58:44;;;;;;;4.70;2.33;;;7.00;85.30;;;;;;5030345;28;20039;-64
2022/05/06 13:01:16;;;;;;;4.07;2.05;;;6.90;85.80;;;;;;5029974;28;20021;-63
2022/05/06 13:03:44;;;;;;;5.30;2.72;;;6.80;85.20;;;;;;5030197;28;20075;-64
2022/05/06 13:06:11;;;;;;;4.22;2.20;;;6.70;86.30;;;;;;5029945;28;20064;-64
2022/05/06 13:08:42;;;;;;;4.57;1.95;;;6.60;87.10;;;;;;5029794;28;20482;-67
2022/05/06 13:11:09;;;;;;;3.40;1.60;;;6.50;86.30;;;;;;5039866;28;20025;-68
2022/05/06 13:13:36;;;;;;;3.40;1.58;;;6.50;87.30;;;;;;5044889;28;20466;-68
2022/05/06 13:16:04;;;;;;;2.92;1.60;;;6.60;90.70;;;;;;5032528;28;20116;-68
2022/05/06 13:18:31;;;;;;;2.65;1.38;;;6.70;89.30;;;;;;5049256;28;20449;-68
2022/05/06 13:20:58;;;;;;;2.78;1.42;;;6.70;88.60;;;;;;5049280;28;20017;-68
2022/05/06 13:23:28;;;;;;;2.83;0.80;;;6.70;89.10;;;;;;5049518;28;20074;-68
2022/05/06 13:25:56;;;;;;;2.42;1.65;;;6.90;88.30;;;;;;5049038;28;20032;-67
2022/05/06 13:28:23;;;;;;;3.25;0.70;;;6.90;88.00;;;;;;5049487;28;20036;-67
2022/05/06 13:30:50;;;;;;;2.83;1.10;;;6.90;86.80;;;;;;5049245;28;20039;-67
2022/05/06 13:33:18;;;;;;;3.10;1.10;;;6.90;86.10;;;;;;5049278;28;20028;-67
2022/05/06 13:35:45;;;;;;;3.83;1.13;;;6.80;86.00;;;;;;5049278;28;20082;-67
2022/05/06 13:38:12;;;;;;;2.70;0.93;;;6.70;86.00;;;;;;5048184;28;20091;-67
2022/05/06 13:40:39;;;;;;;2.17;0.90;;;6.60;86.80;;;;;;5048396;28;20520;-67
2022/05/06 13:43:06;;;;;;;2.25;1.00;;;6.50;87.70;;;;;;5047667;28;20092;-66
2022/05/06 13:45:34;;;;;;;2.45;1.20;;;6.40;88.00;;;;;;5037866;28;20058;-65